sensor_id;sensor_type;location;lat;lon;timestamp;pressure;altitude;pressure_sealevel;temperature;humidity
16355;BME280;8287;51.644;8.494;2023-02-11T00:00:53;102094.16;;;8.75;79.77
16355;BME280;8287;51.644;8.494;2023-02-11T00:03:19;102082.25;;;8.73;79.94
16355;BME280;8287;51.644;8.494;2023-02-11T00:05:55;102087.03;;;8.76;79.87
16355;BME280;8287;51.644;8.494;2023-02-11T00:08:23;102073.00;;;8.70;79.92
16355;BME280;8287;51.644;8.494;2023-02-11T00:10:51;102083.84;;;8.74;79.94
16355;BME280;8287;51.644;8.494;2023-02-11T00:13:17;102074.66;;;8.76;79.37
16355;BME280;8287;51.644;8.494;2023-02-11T00:15:44;102064.06;;;8.76;79.59
16355;BME280;8287;51.644;8.494;2023-02-11T00:18:11;102068.78;;;8.74;79.68
16355;BME280;8287;51.644;8.494;2023-02-11T00:20:37;102055.78;;;8.68;79.59
16355;BME280;8287;51.644;8.494;2023-02-11T00:23:04;102064.06;;;8.76;79.50
16355;BME280;8287;51.644;8.494;2023-02-11T00:25:32;102064.06;;;8.76;79.09
16355;BME280;8287;51.644;8.494;2023-02-11T00:28:01;102051.31;;;8.68;79.89
16355;BME280;8287;51.644;8.494;2023-02-11T00:30:28;102061.13;;;8.73;79.78
16355;BME280;8287;51.644;8.494;2023-02-11T00:32:55;102053.13;;;8.68;79.52
16355;BME280;8287;51.644;8.494;2023-02-11T00:35:21;102055.56;;;8.74;78.81
16355;BME280;8287;51.644;8.494;2023-02-11T00:37:48;102049.97;;;8.71;79.32
16355;BME280;8287;51.644;8.494;2023-02-11T00:40:15;102059.31;;;8.78;78.87
16355;BME280;8287;51.644;8.494;2023-02-11T00:42:43;102057.16;;;8.75;78.55
16355;BME280;8287;51.644;8.494;2023-02-11T00:45:10;102067.47;;;8.72;79.08
16355;BME280;8287;51.644;8.494;2023-02-11T00:47:37;102058.47;;;8.73;78.77
16355;BME280;8287;51.644;8.494;2023-02-11T00:50:04;102063.25;;;8.76;78.98
16355;BME280;8287;51.644;8.494;2023-02-11T00:52:33;102053.19;;;8.73;78.79
16355;BME280;8287;51.644;8.494;2023-02-11T00:55:00;102063.78;;;8.73;78.80
16355;BME280;8287;51.644;8.494;2023-02-11T00:57:26;102057.66;;;8.72;78.76
16355;BME280;8287;51.644;8.494;2023-02-11T00:59:54;102055.78;;;8.68;78.82
16355;BME280;8287;51.644;8.494;2023-02-11T01:02:21;102066.03;;;8.64;79.16
16355;BME280;8287;51.644;8.494;2023-02-11T01:04:47;102062.97;;;8.72;78.77
16355;BME280;8287;51.644;8.494;2023-02-11T01:07:14;102067.69;;;8.70;78.66
16355;BME280;8287;51.644;8.494;2023-02-11T01:09:41;102068.84;;;8.79;78.87
16355;BME280;8287;51.644;8.494;2023-02-11T01:12:07;102060.09;;;8.79;78.63
16355;BME280;8287;51.644;8.494;2023-02-11T01:14:34;102061.97;;;8.78;78.09
16355;BME280;8287;51.644;8.494;2023-02-11T01:17:03;102049.22;;;8.70;78.38
16355;BME280;8287;51.644;8.494;2023-02-11T01:19:30;102047.91;;;8.73;78.54
16355;BME280;8287;51.644;8.494;2023-02-11T01:21:56;102047.91;;;8.73;78.57
16355;BME280;8287;51.644;8.494;2023-02-11T01:24:23;102066.94;;;8.75;78.83
16355;BME280;8287;51.644;8.494;2023-02-11T01:26:49;102056.31;;;8.70;79.08
16355;BME280;8287;51.644;8.494;2023-02-11T01:29:16;102060.25;;;8.67;79.41
16355;BME280;8287;51.644;8.494;2023-02-11T01:31:43;102074.81;;;8.70;79.14
16355;BME280;8287;51.644;8.494;2023-02-11T01:34:11;102071.88;;;8.66;79.49
16355;BME280;8287;51.644;8.494;2023-02-11T01:36:38;102061.75;;;8.58;79.65
16355;BME280;8287;51.644;8.494;2023-02-11T01:39:04;102069.19;;;8.61;79.77
16355;BME280;8287;51.644;8.494;2023-02-11T01:41:33;102066.56;;;8.61;79.51
16355;BME280;8287;51.644;8.494;2023-02-11T01:44:22;102065.25;;;8.64;79.60
16355;BME280;8287;51.644;8.494;2023-02-11T01:46:49;102061.06;;;8.68;78.86
16355;BME280;8287;51.644;8.494;2023-02-11T01:49:20;102066.03;;;8.64;79.10
16355;BME280;8287;51.644;8.494;2023-02-11T01:51:51;102059.72;;;8.65;79.35
16355;BME280;8287;51.644;8.494;2023-02-11T01:54:21;102043.81;;;8.60;79.87
16355;BME280;8287;51.644;8.494;2023-02-11T01:57:03;102047.25;;;8.61;80.44
16355;BME280;8287;51.644;8.494;2023-02-11T02:00:07;102034.00;;;8.56;80.48
16355;BME280;8287;51.644;8.494;2023-02-11T02:02:39;102021.56;;;8.56;80.71
16355;BME280;8287;51.644;8.494;2023-02-11T02:05:16;102024.19;;;8.51;80.61
16355;BME280;8287;51.644;8.494;2023-02-11T02:07:53;102047.38;;;8.49;80.61
16355;BME280;8287;51.644;8.494;2023-02-11T02:10:23;102033.09;;;8.45;81.34
16355;BME280;8287;51.644;8.494;2023-02-11T02:12:51;102027.75;;;8.40;81.58
16355;BME280;8287;51.644;8.494;2023-02-11T02:15:24;102019.28;;;8.38;82.04
16355;BME280;8287;51.644;8.494;2023-02-11T02:21:10;102017.44;;;8.39;82.48
16355;BME280;8287;51.644;8.494;2023-02-11T02:23:54;102018.97;;;8.35;82.47
16355;BME280;8287;51.644;8.494;2023-02-11T02:26:42;102002.69;;;8.43;82.08
16355;BME280;8287;51.644;8.494;2023-02-11T02:35:11;102014.53;;;8.40;81.66
16355;BME280;8287;51.644;8.494;2023-02-11T02:37:45;102020.88;;;8.39;81.51
16355;BME280;8287;51.644;8.494;2023-02-11T02:40:20;102006.38;;;8.42;81.70
16355;BME280;8287;51.644;8.494;2023-02-11T02:42:50;102006.69;;;8.45;81.37
16355;BME280;8287;51.644;8.494;2023-02-11T02:45:17;102015.38;;;8.46;81.78
16355;BME280;8287;51.644;8.494;2023-02-11T02:47:44;102009.25;;;8.40;82.44
16355;BME280;8287;51.644;8.494;2023-02-11T02:50:14;102013.78;;;8.45;82.81
16355;BME280;8287;51.644;8.494;2023-02-11T02:52:53;102014.81;;;8.39;83.47
16355;BME280;8287;51.644;8.494;2023-02-11T02:55:41;102005.22;;;8.33;84.28
16355;BME280;8287;51.644;8.494;2023-02-11T02:58:28;102010.19;;;8.29;84.32
16355;BME280;8287;51.644;8.494;2023-02-11T03:01:05;102017.50;;;8.22;85.47
16355;BME280;8287;51.644;8.494;2023-02-11T03:03:40;102028.91;;;8.28;85.58
16355;BME280;8287;51.644;8.494;2023-02-11T03:06:12;102025.94;;;8.19;86.10
16355;BME280;8287;51.644;8.494;2023-02-11T03:08:42;102020.16;;;8.22;85.43
16355;BME280;8287;51.644;8.494;2023-02-11T03:11:14;102018.47;;;8.16;86.37
16355;BME280;8287;51.644;8.494;2023-02-11T03:13:43;102018.72;;;8.15;86.57
16355;BME280;8287;51.644;8.494;2023-02-11T03:16:15;102005.25;;;8.16;86.37
16355;BME280;8287;51.644;8.494;2023-02-11T03:18:48;102003.66;;;8.15;86.72
16355;BME280;8287;51.644;8.494;2023-02-11T03:21:17;102002.06;;;8.14;86.42
16355;BME280;8287;51.644;8.494;2023-02-11T03:23:48;102003.13;;;8.13;86.66
16355;BME280;8287;51.644;8.494;2023-02-11T03:26:20;102002.06;;;8.14;86.48
16355;BME280;8287;51.644;8.494;2023-02-11T03:28:54;101990.72;;;8.14;86.40
16355;BME280;8287;51.644;8.494;2023-02-11T03:31:28;101987.22;;;8.08;86.34
16355;BME280;8287;51.644;8.494;2023-02-11T03:33:59;101993.06;;;8.10;86.51
16355;BME280;8287;51.644;8.494;2023-02-11T03:36:35;102005.34;;;8.21;86.41
16355;BME280;8287;51.644;8.494;2023-02-11T03:39:08;101992.16;;;8.21;86.19
16355;BME280;8287;51.644;8.494;2023-02-11T03:41:36;101994.25;;;8.19;86.47
16355;BME280;8287;51.644;8.494;2023-02-11T03:44:05;101988.16;;;8.19;85.73
16355;BME280;8287;51.644;8.494;2023-02-11T03:46:34;101988.41;;;8.17;85.99
16355;BME280;8287;51.644;8.494;2023-02-11T03:49:07;101985.81;;;8.22;85.93
16355;BME280;8287;51.644;8.494;2023-02-11T03:51:36;101977.91;;;8.22;85.47
16355;BME280;8287;51.644;8.494;2023-02-11T03:54:06;101980.78;;;8.21;85.77
16355;BME280;8287;51.644;8.494;2023-02-11T03:56:39;101984.25;;;8.21;85.54
16355;BME280;8287;51.644;8.494;2023-02-11T03:59:07;101989.59;;;8.26;85.38
16355;BME280;8287;51.644;8.494;2023-02-11T04:01:33;101970.78;;;8.23;85.24
16355;BME280;8287;51.644;8.494;2023-02-11T04:04:00;101964.72;;;8.22;85.46
16355;BME280;8287;51.644;8.494;2023-02-11T04:06:27;101967.41;;;8.27;85.46
16355;BME280;8287;51.644;8.494;2023-02-11T04:08:55;101967.88;;;8.24;85.22
16355;BME280;8287;51.644;8.494;2023-02-11T04:11:21;101970.06;;;8.27;85.75
16355;BME280;8287;51.644;8.494;2023-02-11T04:13:48;101979.50;;;8.23;85.65
16355;BME280;8287;51.644;8.494;2023-02-11T04:16:17;101977.13;;;8.22;85.72
16355;BME280;8287;51.644;8.494;2023-02-11T04:18:43;101989.63;;;8.31;85.73
16355;BME280;8287;51.644;8.494;2023-02-11T04:21:10;101994.06;;;8.26;85.93
16355;BME280;8287;51.644;8.494;2023-02-11T04:23:37;101982.69;;;8.25;85.60
16355;BME280;8287;51.644;8.494;2023-02-11T04:26:05;101980.84;;;8.26;85.14
16355;BME280;8287;51.644;8.494;2023-02-11T04:28:32;101981.59;;;8.21;85.77
16355;BME280;8287;51.644;8.494;2023-02-11T04:30:59;101987.13;;;8.20;86.04
16355;BME280;8287;51.644;8.494;2023-02-11T04:33:25;101998.97;;;8.17;86.24
16355;BME280;8287;51.644;8.494;2023-02-11T04:35:52;101999.44;;;8.14;86.43
16355;BME280;8287;51.644;8.494;2023-02-11T04:38:19;101997.44;;;8.21;86.24
16355;BME280;8287;51.644;8.494;2023-02-11T04:40:48;102004.81;;;8.19;86.06
16355;BME280;8287;51.644;8.494;2023-02-11T04:43:16;102001.03;;;8.15;86.14
16355;BME280;8287;51.644;8.494;2023-02-11T04:45:42;102003.44;;;8.17;86.37
16355;BME280;8287;51.644;8.494;2023-02-11T04:48:09;101994.69;;;8.16;86.31
16355;BME280;8287;51.644;8.494;2023-02-11T04:50:36;101989.13;;;8.13;86.79
16355;BME280;8287;51.644;8.494;2023-02-11T04:53:02;101983.13;;;8.17;86.63
16355;BME280;8287;51.644;8.494;2023-02-11T04:55:29;101983.13;;;8.17;86.37
16355;BME280;8287;51.644;8.494;2023-02-11T04:57:56;101980.97;;;8.14;87.40
16355;BME280;8287;51.644;8.494;2023-02-11T05:00:24;101992.50;;;8.08;87.47
16355;BME280;8287;51.644;8.494;2023-02-11T05:02:50;101991.22;;;8.11;87.58
16355;BME280;8287;51.644;8.494;2023-02-11T05:05:17;101981.94;;;8.08;87.75
16355;BME280;8287;51.644;8.494;2023-02-11T05:07:43;101986.19;;;8.09;88.08
16355;BME280;8287;51.644;8.494;2023-02-11T05:10:10;101982.44;;;8.05;88.42
16355;BME280;8287;51.644;8.494;2023-02-11T05:12:37;101971.78;;;7.95;88.77
16355;BME280;8287;51.644;8.494;2023-02-11T05:15:04;101972.50;;;7.91;89.20
16355;BME280;8287;51.644;8.494;2023-02-11T05:17:32;101988.09;;;7.92;89.10
16355;BME280;8287;51.644;8.494;2023-02-11T05:19:59;101992.56;;;7.92;89.35
16355;BME280;8287;51.644;8.494;2023-02-11T05:22:25;101995.28;;;7.97;89.31
16355;BME280;8287;51.644;8.494;2023-02-11T05:24:52;101984.72;;;7.97;89.10
16355;BME280;8287;51.644;8.494;2023-02-11T05:27:18;102003.97;;;7.97;89.35
16355;BME280;8287;51.644;8.494;2023-02-11T05:29:45;102003.75;;;7.99;89.63
16355;BME280;8287;51.644;8.494;2023-02-11T05:32:12;102001.34;;;7.97;88.85
16355;BME280;8287;51.644;8.494;2023-02-11T05:34:40;101996.06;;;7.97;89.07
16355;BME280;8287;51.644;8.494;2023-02-11T05:37:06;101993.44;;;7.97;89.47
16355;BME280;8287;51.644;8.494;2023-02-11T05:39:33;101984.72;;;7.97;88.90
16355;BME280;8287;51.644;8.494;2023-02-11T05:41:59;101985.50;;;7.97;89.09
16355;BME280;8287;51.644;8.494;2023-02-11T05:44:26;101983.91;;;7.96;89.27
16355;BME280;8287;51.644;8.494;2023-02-11T05:46:53;101979.94;;;7.94;89.43
16355;BME280;8287;51.644;8.494;2023-02-11T05:49:19;101983.72;;;8.03;88.96
16355;BME280;8287;51.644;8.494;2023-02-11T05:51:47;101974.94;;;7.97;89.04
16355;BME280;8287;51.644;8.494;2023-02-11T05:54:14;101984.03;;;8.06;89.13
16355;BME280;8287;51.644;8.494;2023-02-11T05:56:41;101969.16;;;8.00;88.63
16355;BME280;8287;51.644;8.494;2023-02-11T05:59:08;101972.38;;;8.02;89.31
16355;BME280;8287;51.644;8.494;2023-02-11T06:01:34;101968.16;;;8.01;89.20
16355;BME280;8287;51.644;8.494;2023-02-11T06:04:01;101959.34;;;7.96;89.64
16355;BME280;8287;51.644;8.494;2023-02-11T06:06:28;101956.25;;;7.99;89.12
16355;BME280;8287;51.644;8.494;2023-02-11T06:08:56;101956.97;;;7.94;89.43
16355;BME280;8287;51.644;8.494;2023-02-11T06:11:23;101972.38;;;8.02;89.51
16355;BME280;8287;51.644;8.494;2023-02-11T06:13:49;101965.50;;;8.01;89.52
16355;BME280;8287;51.644;8.494;2023-02-11T06:16:16;101971.34;;;8.03;89.48
16355;BME280;8287;51.644;8.494;2023-02-11T06:18:43;101966.28;;;8.02;89.45
16355;BME280;8287;51.644;8.494;2023-02-11T06:21:10;101978.28;;;8.09;88.81
16355;BME280;8287;51.644;8.494;2023-02-11T06:23:37;101982.25;;;8.12;89.23
16355;BME280;8287;51.644;8.494;2023-02-11T06:26:07;101969.78;;;8.07;88.87
16355;BME280;8287;51.644;8.494;2023-02-11T06:28:34;101980.66;;;8.11;89.48
16355;BME280;8287;51.644;8.494;2023-02-11T06:31:04;101975.06;;;8.07;89.35
16355;BME280;8287;51.644;8.494;2023-02-11T06:33:31;101979.88;;;8.10;89.33
16355;BME280;8287;51.644;8.494;2023-02-11T06:35:58;101977.41;;;8.04;89.46
16355;BME280;8287;51.644;8.494;2023-02-11T06:38:25;101980.84;;;8.04;89.73
16355;BME280;8287;51.644;8.494;2023-02-11T06:40:51;101995.56;;;8.00;89.95
16355;BME280;8287;51.644;8.494;2023-02-11T06:43:19;101993.50;;;8.02;90.04
16355;BME280;8287;51.644;8.494;2023-02-11T06:45:51;101990.00;;;7.97;90.19
16355;BME280;8287;51.644;8.494;2023-02-11T06:48:18;101989.38;;;7.90;90.80
16355;BME280;8287;51.644;8.494;2023-02-11T06:50:45;101991.59;;;7.98;90.44
16355;BME280;8287;51.644;8.494;2023-02-11T06:53:12;101996.06;;;7.97;90.23
16355;BME280;8287;51.644;8.494;2023-02-11T06:55:38;101986.88;;;8.00;90.08
16355;BME280;8287;51.644;8.494;2023-02-11T06:58:05;102009.25;;;7.97;90.33
16355;BME280;8287;51.644;8.494;2023-02-11T07:00:33;102002.16;;;7.98;90.58
16355;BME280;8287;51.644;8.494;2023-02-11T07:03:00;102023.88;;;8.05;90.11
16355;BME280;8287;51.644;8.494;2023-02-11T07:05:26;102016.25;;;8.08;89.93
16355;BME280;8287;51.644;8.494;2023-02-11T07:07:53;102024.75;;;8.10;89.98
16355;BME280;8287;51.644;8.494;2023-02-11T07:10:19;102022.41;;;8.14;89.71
16355;BME280;8287;51.644;8.494;2023-02-11T07:12:46;102029.44;;;8.08;90.05
16355;BME280;8287;51.644;8.494;2023-02-11T07:15:13;102031.06;;;8.09;90.47
16355;BME280;8287;51.644;8.494;2023-02-11T07:17:41;102014.72;;;8.12;89.88
16355;BME280;8287;51.644;8.494;2023-02-11T07:20:08;102024.75;;;8.10;90.28
16355;BME280;8287;51.644;8.494;2023-02-11T07:22:36;102025.53;;;8.11;89.83
16355;BME280;8287;51.644;8.494;2023-02-11T07:25:03;102018.88;;;8.08;90.11
16355;BME280;8287;51.644;8.494;2023-02-11T07:27:30;102017.59;;;8.11;90.39
16355;BME280;8287;51.644;8.494;2023-02-11T07:29:57;102022.66;;;8.12;90.15
16355;BME280;8287;51.644;8.494;2023-02-11T07:32:23;102028.00;;;8.17;89.91
16355;BME280;8287;51.644;8.494;2023-02-11T07:34:51;102027.38;;;8.10;90.33
16355;BME280;8287;51.644;8.494;2023-02-11T07:37:18;102035.22;;;8.05;90.82
16355;BME280;8287;51.644;8.494;2023-02-11T07:39:45;102035.78;;;8.07;90.52
16355;BME280;8287;51.644;8.494;2023-02-11T07:42:11;102042.66;;;8.08;91.00
16355;BME280;8287;51.644;8.494;2023-02-11T07:44:38;102037.38;;;8.08;90.82
16355;BME280;8287;51.644;8.494;2023-02-11T07:47:04;102043.47;;;8.09;90.88
16355;BME280;8287;51.644;8.494;2023-02-11T07:49:31;102041.13;;;8.12;90.75
16355;BME280;8287;51.644;8.494;2023-02-11T07:51:59;102032.66;;;8.10;90.77
16355;BME280;8287;51.644;8.494;2023-02-11T07:54:26;102038.81;;;8.16;90.65
16355;BME280;8287;51.644;8.494;2023-02-11T07:56:52;102027.53;;;8.20;90.82
16355;BME280;8287;51.644;8.494;2023-02-11T07:59:19;102038.09;;;8.20;90.83
16355;BME280;8287;51.644;8.494;2023-02-11T08:01:45;102042.41;;;8.26;90.81
16355;BME280;8287;51.644;8.494;2023-02-11T08:04:12;102035.22;;;8.22;90.98
16355;BME280;8287;51.644;8.494;2023-02-11T08:06:40;102037.28;;;8.20;91.15
16355;BME280;8287;51.644;8.494;2023-02-11T08:09:13;102039.91;;;8.20;91.18
16355;BME280;8287;51.644;8.494;2023-02-11T08:11:41;102034.88;;;8.18;91.21
16355;BME280;8287;51.644;8.494;2023-02-11T08:14:08;102044.16;;;8.21;91.42
16355;BME280;8287;51.644;8.494;2023-02-11T08:16:36;102045.59;;;8.28;91.56
16355;BME280;8287;51.644;8.494;2023-02-11T08:19:04;102042.97;;;8.33;91.44
16355;BME280;8287;51.644;8.494;2023-02-11T08:21:31;102042.50;;;8.36;90.87
16355;BME280;8287;51.644;8.494;2023-02-11T08:24:00;102036.22;;;8.42;91.24
16355;BME280;8287;51.644;8.494;2023-02-11T08:26:29;102039.34;;;8.39;91.08
16355;BME280;8287;51.644;8.494;2023-02-11T08:29:00;102036.50;;;8.46;90.69
16355;BME280;8287;51.644;8.494;2023-02-11T08:31:28;102045.31;;;8.51;90.79
16355;BME280;8287;51.644;8.494;2023-02-11T08:33:55;102044.44;;;8.46;90.84
16355;BME280;8287;51.644;8.494;2023-02-11T08:36:25;102047.09;;;8.46;90.77
16355;BME280;8287;51.644;8.494;2023-02-11T08:38:54;102040.03;;;8.51;90.67
16355;BME280;8287;51.644;8.494;2023-02-11T08:41:21;102046.94;;;8.57;90.68
16355;BME280;8287;51.644;8.494;2023-02-11T08:43:49;102048.97;;;8.50;90.65
16355;BME280;8287;51.644;8.494;2023-02-11T08:46:17;102053.19;;;8.46;90.96
16355;BME280;8287;51.644;8.494;2023-02-11T08:48:45;102052.50;;;8.56;91.40
16355;BME280;8287;51.644;8.494;2023-02-11T08:51:13;102063.59;;;8.58;91.08
16355;BME280;8287;51.644;8.494;2023-02-11T08:53:40;102062.78;;;8.57;91.17
16355;BME280;8287;51.644;8.494;2023-02-11T08:56:09;102063.84;;;8.56;91.02
16355;BME280;8287;51.644;8.494;2023-02-11T08:58:35;102066.25;;;8.58;90.95
16355;BME280;8287;51.644;8.494;2023-02-11T09:01:09;102061.81;;;8.63;90.89
16355;BME280;8287;51.644;8.494;2023-02-11T09:03:36;102061.00;;;8.63;90.66
16355;BME280;8287;51.644;8.494;2023-02-11T09:06:04;102058.13;;;8.64;90.67
16355;BME280;8287;51.644;8.494;2023-02-11T09:08:33;102057.56;;;8.62;91.14
16355;BME280;8287;51.644;8.494;2023-02-11T09:11:00;102061.56;;;8.65;90.93
16355;BME280;8287;51.644;8.494;2023-02-11T09:13:26;102061.06;;;8.68;90.83
16355;BME280;8287;51.644;8.494;2023-02-11T09:15:53;102064.81;;;8.72;91.10
16355;BME280;8287;51.644;8.494;2023-02-11T09:18:21;102065.09;;;8.75;90.45
16355;BME280;8287;51.644;8.494;2023-02-11T09:20:48;102066.94;;;8.75;90.83
16355;BME280;8287;51.644;8.494;2023-02-11T09:23:14;102078.91;;;8.82;90.30
16355;BME280;8287;51.644;8.494;2023-02-11T09:25:41;102087.38;;;8.84;90.11
16355;BME280;8287;51.644;8.494;2023-02-11T09:28:08;102092.72;;;8.89;90.36
16355;BME280;8287;51.644;8.494;2023-02-11T09:30:36;102086.91;;;8.87;90.57
16355;BME280;8287;51.644;8.494;2023-02-11T09:33:03;102081.84;;;8.86;90.32
16355;BME280;8287;51.644;8.494;2023-02-11T09:35:31;102094.63;;;8.94;90.58
16355;BME280;8287;51.644;8.494;2023-02-11T09:37:58;102089.00;;;8.85;90.42
16355;BME280;8287;51.644;8.494;2023-02-11T09:40:25;102091.69;;;8.90;90.97
16355;BME280;8287;51.644;8.494;2023-02-11T09:42:56;102089.56;;;8.92;90.65
16355;BME280;8287;51.644;8.494;2023-02-11T09:45:28;102092.78;;;8.94;90.87
16355;BME280;8287;51.644;8.494;2023-02-11T09:47:57;102092.56;;;9.01;90.55
16355;BME280;8287;51.644;8.494;2023-02-11T09:50:29;102105.56;;;9.02;90.30
16355;BME280;8287;51.644;8.494;2023-02-11T09:53:00;102098.94;;;9.05;90.40
16355;BME280;8287;51.644;8.494;2023-02-11T09:55:30;102110.28;;;9.00;90.59
16355;BME280;8287;51.644;8.494;2023-02-11T09:58:03;102100.28;;;9.02;90.44
16355;BME280;8287;51.644;8.494;2023-02-11T10:00:32;102104.34;;;9.15;90.48
16355;BME280;8287;51.644;8.494;2023-02-11T10:03:14;102109.06;;;9.13;90.02
16355;BME280;8287;51.644;8.494;2023-02-11T10:05:55;102113.56;;;9.12;90.28
16355;BME280;8287;51.644;8.494;2023-02-11T10:08:33;102115.22;;;9.18;89.98
16355;BME280;8287;51.644;8.494;2023-02-11T10:11:08;102110.47;;;9.20;90.30
16355;BME280;8287;51.644;8.494;2023-02-11T10:13:45;102118.13;;;9.17;89.94
16355;BME280;8287;51.644;8.494;2023-02-11T10:16:25;102128.44;;;9.18;89.95
16355;BME280;8287;51.644;8.494;2023-02-11T10:19:12;102118.91;;;9.17;90.74
16355;BME280;8287;51.644;8.494;2023-02-11T10:21:51;102107.25;;;9.13;90.53
16355;BME280;8287;51.644;8.494;2023-02-11T10:24:22;102121.84;;;9.21;90.49
16355;BME280;8287;51.644;8.494;2023-02-11T10:26:50;102124.78;;;9.24;90.37
16355;BME280;8287;51.644;8.494;2023-02-11T10:29:27;102122.72;;;9.26;90.24
16355;BME280;8287;51.644;8.494;2023-02-11T10:31:59;102126.66;;;9.24;90.26
16355;BME280;8287;51.644;8.494;2023-02-11T10:34:26;102114.19;;;9.24;90.91
16355;BME280;8287;51.644;8.494;2023-02-11T10:36:53;102121.34;;;9.24;90.74
16355;BME280;8287;51.644;8.494;2023-02-11T10:39:24;102128.44;;;9.18;90.90
16355;BME280;8287;51.644;8.494;2023-02-11T10:44:52;102133.78;;;9.23;90.61
16355;BME280;8287;51.644;8.494;2023-02-11T10:47:21;102128.44;;;9.18;91.09
16355;BME280;8287;51.644;8.494;2023-02-11T10:49:49;102139.34;;;9.27;91.29
16355;BME280;8287;51.644;8.494;2023-02-11T10:52:21;102140.16;;;9.27;90.80
16355;BME280;8287;51.644;8.494;2023-02-11T10:55:02;102137.13;;;9.14;91.49
16355;BME280;8287;51.644;8.494;2023-02-11T10:57:33;102138.75;;;9.20;91.63
16355;BME280;8287;51.644;8.494;2023-02-11T11:00:06;102135.81;;;9.16;91.41
16355;BME280;8287;51.644;8.494;2023-02-11T11:02:35;102136.63;;;9.17;91.75
16355;BME280;8287;51.644;8.494;2023-02-11T11:05:14;102139.88;;;9.24;91.57
16355;BME280;8287;51.644;8.494;2023-02-11T11:07:50;102139.56;;;9.20;91.37
16355;BME280;8287;51.644;8.494;2023-02-11T11:10:28;102141.75;;;9.28;91.62
16355;BME280;8287;51.644;8.494;2023-02-11T11:12:55;102140.19;;;9.32;91.40
16355;BME280;8287;51.644;8.494;2023-02-11T11:15:23;102135.41;;;9.29;91.14
16355;BME280;8287;51.644;8.494;2023-02-11T11:18:08;102119.50;;;9.24;91.14
16355;BME280;8287;51.644;8.494;2023-02-11T11:20:35;102129.13;;;9.35;91.38
16355;BME280;8287;51.644;8.494;2023-02-11T11:23:14;102134.91;;;9.32;91.17
16355;BME280;8287;51.644;8.494;2023-02-11T11:25:44;102129.28;;;9.24;91.15
16355;BME280;8287;51.644;8.494;2023-02-11T11:28:21;102126.88;;;9.22;91.28
16355;BME280;8287;51.644;8.494;2023-02-11T11:30:48;102136.94;;;9.20;91.76
16355;BME280;8287;51.644;8.494;2023-02-11T11:33:20;102144.56;;;9.17;91.94
16355;BME280;8287;51.644;8.494;2023-02-11T11:35:59;102137.41;;;9.17;91.99
16355;BME280;8287;51.644;8.494;2023-02-11T11:38:27;102144.25;;;9.13;92.58
16355;BME280;8287;51.644;8.494;2023-02-11T11:41:19;102140.06;;;9.17;92.61
16355;BME280;8287;51.644;8.494;2023-02-11T11:44:02;102143.34;;;9.29;92.02
16355;BME280;8287;51.644;8.494;2023-02-11T11:46:32;102138.59;;;9.31;91.75
16355;BME280;8287;51.644;8.494;2023-02-11T11:49:20;102141.84;;;9.38;92.17
16355;BME280;8287;51.644;8.494;2023-02-11T11:51:52;102151.38;;;9.39;92.03
16355;BME280;8287;51.644;8.494;2023-02-11T11:54:23;102150.38;;;9.45;91.20
16355;BME280;8287;51.644;8.494;2023-02-11T11:56:55;102143.22;;;9.46;91.33
16355;BME280;8287;51.644;8.494;2023-02-11T11:59:23;102138.75;;;9.46;91.01
16355;BME280;8287;51.644;8.494;2023-02-11T12:02:04;102131.03;;;9.40;91.42
16355;BME280;8287;51.644;8.494;2023-02-11T12:04:45;102134.41;;;9.35;91.65
16355;BME280;8287;51.644;8.494;2023-02-11T12:07:27;102138.16;;;9.39;91.31
16355;BME280;8287;51.644;8.494;2023-02-11T12:10:22;102139.75;;;9.40;91.47
16355;BME280;8287;51.644;8.494;2023-02-11T12:13:01;102137.09;;;9.40;91.50
16355;BME280;8287;51.644;8.494;2023-02-11T12:15:37;102141.91;;;9.43;91.35
16355;BME280;8287;51.644;8.494;2023-02-11T12:18:22;102128.69;;;9.48;91.44
16355;BME280;8287;51.644;8.494;2023-02-11T12:21:13;102131.88;;;9.50;90.91
16355;BME280;8287;51.644;8.494;2023-02-11T12:23:55;102129.81;;;9.57;90.98
16355;BME280;8287;51.644;8.494;2023-02-11T12:26:28;102134.13;;;9.63;91.01
16355;BME280;8287;51.644;8.494;2023-02-11T12:29:07;102151.50;;;9.54;91.09
16355;BME280;8287;51.644;8.494;2023-02-11T12:31:54;102143.28;;;9.51;91.14
16355;BME280;8287;51.644;8.494;2023-02-11T12:34:47;102136.41;;;9.55;90.80
16355;BME280;8287;51.644;8.494;2023-02-11T12:37:29;102137.22;;;9.55;90.60
16355;BME280;8287;51.644;8.494;2023-02-11T12:40:11;102142.75;;;9.54;90.85
16355;BME280;8287;51.644;8.494;2023-02-11T12:42:49;102149.34;;;9.51;91.42
16355;BME280;8287;51.644;8.494;2023-02-11T12:45:45;102140.34;;;9.47;91.14
16355;BME280;8287;51.644;8.494;2023-02-11T12:48:29;102149.31;;;9.46;91.45
16355;BME280;8287;51.644;8.494;2023-02-11T12:51:06;102142.69;;;9.44;91.26
16355;BME280;8287;51.644;8.494;2023-02-11T12:53:51;102150.31;;;9.40;91.41
16355;BME280;8287;51.644;8.494;2023-02-11T12:56:24;102143.53;;;9.49;91.69
16355;BME280;8287;51.644;8.494;2023-02-11T12:58:54;102150.38;;;9.45;92.04
16355;BME280;8287;51.644;8.494;2023-02-11T13:01:27;102136.63;;;9.43;91.57
16355;BME280;8287;51.644;8.494;2023-02-11T13:03:58;102134.03;;;9.53;91.81
16355;BME280;8287;51.644;8.494;2023-02-11T13:06:35;102132.94;;;9.49;91.40
16355;BME280;8287;51.644;8.494;2023-02-11T13:09:05;102124.75;;;9.51;91.43
16355;BME280;8287;51.644;8.494;2023-02-11T13:11:38;102120.50;;;9.50;91.84
16355;BME280;8287;51.644;8.494;2023-02-11T13:14:09;102122.34;;;9.49;91.35
16355;BME280;8287;51.644;8.494;2023-02-11T13:16:41;102119.78;;;9.59;91.90
16355;BME280;8287;51.644;8.494;2023-02-11T13:19:17;102127.69;;;9.54;91.98
16355;BME280;8287;51.644;8.494;2023-02-11T13:22:00;102131.69;;;9.57;91.57
16355;BME280;8287;51.644;8.494;2023-02-11T13:24:33;102125.06;;;9.54;91.85
16355;BME280;8287;51.644;8.494;2023-02-11T13:27:09;102126.13;;;9.58;91.92
16355;BME280;8287;51.644;8.494;2023-02-11T13:30:02;102136.53;;;9.69;91.16
16355;BME280;8287;51.644;8.494;2023-02-11T13:33:05;102142.34;;;9.67;91.54
16355;BME280;8287;51.644;8.494;2023-02-11T13:35:34;102146.06;;;9.70;91.13
16355;BME280;8287;51.644;8.494;2023-02-11T13:38:02;102146.06;;;9.70;90.92
16355;BME280;8287;51.644;8.494;2023-02-11T13:40:32;102138.69;;;9.73;91.03